Time;durP1;ratioP1;P1;durP2;ratioP2;P2;SDS_P1;SDS_P2;PMS_P1;PMS_P2;Temp;Humidity;BMP_temperature;BMP_pressure;BME280_temperature;BME280_humidity;BME280_pressure;Samples;Min_cycle;Max_cycle;Signal;HPM_P1;HPM_P2
2023/09/07 00:01:52;;;;;;;1.23;1.00;;;21.80;46.50;;;;;;5013198;28;20413;-51
2023/09/07 00:04:19;;;;;;;1.00;0.40;;;21.80;47.10;;;;;;5013246;28;20205;-51
2023/09/07 00:06:44;;;;;;;1.17;0.70;;;21.80;46.60;;;;;;5013024;28;20947;-48
2023/09/07 00:09:11;;;;;;;1.20;0.77;;;21.80;46.40;;;;;;5012978;28;20429;-50
2023/09/07 00:11:38;;;;;;;1.40;0.77;;;21.80;46.30;;;;;;5012868;28;20237;-51
2023/09/07 00:14:04;;;;;;;1.43;1.33;;;21.70;46.70;;;;;;5013070;28;20445;-48
2023/09/07 00:16:38;;;;;;;1.50;0.80;;;21.70;46.80;;;;;;5012925;28;20742;-50
2023/09/07 00:19:04;;;;;;;1.30;0.70;;;21.70;46.50;;;;;;5013163;28;20811;-49
2023/09/07 00:21:30;;;;;;;1.10;0.50;;;21.70;46.60;;;;;;5012811;28;20451;-48
2023/09/07 00:23:56;;;;;;;1.10;0.60;;;21.70;46.70;;;;;;5012728;28;20796;-51
2023/09/07 00:26:22;;;;;;;1.10;0.40;;;21.60;46.90;;;;;;5012750;28;20453;-50
2023/09/07 00:28:47;;;;;;;1.23;0.73;;;21.60;46.60;;;;;;5012935;28;20198;-47
2023/09/07 00:31:13;;;;;;;1.30;0.63;;;21.50;46.60;;;;;;5012790;28;20893;-48
2023/09/07 00:33:39;;;;;;;1.10;0.53;;;21.50;46.90;;;;;;5012681;28;20198;-51
2023/09/07 00:36:05;;;;;;;2.17;1.33;;;21.50;46.40;;;;;;5012408;28;20414;-47
2023/09/07 00:38:31;;;;;;;1.10;0.60;;;21.60;46.40;;;;;;5012548;28;20201;-50
2023/09/07 00:40:57;;;;;;;1.80;0.83;;;21.50;46.60;;;;;;5011353;28;20409;-48
2023/09/07 00:43:22;;;;;;;1.30;0.73;;;21.40;46.60;;;;;;5012534;28;20425;-47
2023/09/07 00:45:49;;;;;;;1.20;0.80;;;21.40;46.80;;;;;;5012576;28;20418;-52
2023/09/07 00:48:18;;;;;;;1.03;0.60;;;21.40;46.70;;;;;;5012431;28;20700;-50
2023/09/07 00:50:44;;;;;;;1.20;0.70;;;21.30;46.60;;;;;;5012690;28;20410;-47
2023/09/07 00:53:14;;;;;;;1.80;1.13;;;21.30;47.00;;;;;;5012399;28;20445;-49
2023/09/07 00:55:40;;;;;;;1.50;0.93;;;21.30;47.00;;;;;;5012256;28;20746;-50
2023/09/07 00:58:06;;;;;;;1.53;0.60;;;21.20;46.70;;;;;;5012494;28;20456;-49
2023/09/07 01:00:33;;;;;;;2.10;0.87;;;21.20;46.80;;;;;;5012462;28;20175;-48
2023/09/07 01:03:00;;;;;;;1.07;0.53;;;21.20;47.00;;;;;;5012290;28;20413;-48
2023/09/07 01:05:50;;;;;;;1.37;0.87;;;21.20;47.00;;;;;;5012010;28;20417;-51
2023/09/07 01:08:45;;;;;;;1.40;0.90;;;21.10;46.70;;;;;;5012430;28;20448;-49
2023/09/07 01:11:15;;;;;;;1.10;0.50;;;21.00;46.80;;;;;;5011961;28;20418;-48
2023/09/07 01:13:42;;;;;;;1.13;0.60;;;21.10;47.10;;;;;;5012133;28;20460;-50
2023/09/07 01:16:13;;;;;;;1.60;1.00;;;21.00;47.10;;;;;;5012280;28;20405;-48
2023/09/07 01:18:40;;;;;;;1.80;1.10;;;21.00;47.10;;;;;;5012378;28;20433;-48
2023/09/07 01:21:11;;;;;;;2.93;1.03;;;21.00;47.20;;;;;;5012393;28;20460;-50
2023/09/07 01:23:39;;;;;;;1.73;0.77;;;21.00;47.10;;;;;;5012289;28;20790;-50
2023/09/07 01:26:08;;;;;;;1.17;0.70;;;20.90;46.90;;;;;;5015857;28;20406;-48
2023/09/07 01:28:37;;;;;;;1.30;0.77;;;20.90;46.80;;;;;;5015990;28;20421;-48
2023/09/07 01:31:03;;;;;;;1.40;0.60;;;20.90;46.80;;;;;;5016146;28;20421;-50
2023/09/07 01:33:29;;;;;;;1.13;0.63;;;20.80;46.70;;;;;;5016037;28;20606;-48
2023/09/07 01:35:55;;;;;;;1.30;0.80;;;20.80;47.10;;;;;;5015678;28;20880;-50
2023/09/07 01:38:21;;;;;;;1.23;0.80;;;20.80;46.80;;;;;;5015811;28;20425;-48
2023/09/07 01:40:47;;;;;;;1.30;0.53;;;20.70;46.80;;;;;;5016059;28;20539;-51
2023/09/07 01:43:13;;;;;;;1.10;0.50;;;20.70;46.80;;;;;;5016014;28;20562;-47
2023/09/07 01:45:39;;;;;;;1.60;1.10;;;20.60;46.80;;;;;;5015533;28;20174;-48
2023/09/07 01:48:10;;;;;;;1.20;0.67;;;20.60;46.80;;;;;;5015498;28;20924;-51
2023/09/07 01:50:36;;;;;;;1.00;0.40;;;20.60;46.90;;;;;;5015752;28;20413;-51
2023/09/07 01:53:04;;;;;;;1.10;0.60;;;20.60;47.00;;;;;;5015783;28;20444;-48
2023/09/07 01:55:33;;;;;;;1.40;0.60;;;20.60;47.10;;;;;;5015319;28;20398;-48
2023/09/07 01:57:59;;;;;;;1.47;1.00;;;20.60;47.10;;;;;;5015447;28;20402;-50
2023/09/07 02:00:25;;;;;;;1.30;0.90;;;20.60;47.10;;;;;;5015587;28;20924;-50
2023/09/07 02:02:50;;;;;;;1.10;0.67;;;20.60;47.20;;;;;;5015399;28;20666;-47
2023/09/07 02:05:16;;;;;;;1.07;0.57;;;20.50;47.10;;;;;;5015217;28;20413;-51
2023/09/07 02:07:43;;;;;;;1.20;0.77;;;20.60;47.20;;;;;;5015406;28;20658;-51
2023/09/07 02:10:09;;;;;;;1.10;0.63;;;20.50;47.00;;;;;;5015147;28;20194;-48
2023/09/07 02:12:35;;;;;;;1.10;0.60;;;20.50;47.10;;;;;;5015247;28;20457;-49
2023/09/07 02:15:03;;;;;;;1.63;0.77;;;20.50;47.10;;;;;;5014913;28;20411;-51
2023/09/07 02:17:30;;;;;;;1.30;0.60;;;20.50;46.70;;;;;;5015231;28;20182;-49
2023/09/07 02:19:56;;;;;;;1.20;0.60;;;20.60;46.80;;;;;;5015063;28;20488;-48
2023/09/07 02:22:21;;;;;;;1.40;0.70;;;20.50;46.90;;;;;;5015088;28;20405;-51
2023/09/07 02:24:47;;;;;;;1.10;0.60;;;20.50;46.80;;;;;;5014774;28;20410;-50
2023/09/07 02:27:13;;;;;;;3.00;1.00;;;20.40;46.90;;;;;;5014990;28;20401;-50
2023/09/07 02:29:39;;;;;;;1.20;0.87;;;20.40;47.00;;;;;;5015063;28;20186;-49
2023/09/07 02:32:05;;;;;;;1.37;0.60;;;20.40;47.20;;;;;;5014775;28;20634;-50
2023/09/07 02:34:31;;;;;;;1.20;0.77;;;20.40;47.10;;;;;;5014440;28;20162;-51
2023/09/07 02:36:57;;;;;;;1.63;0.90;;;20.30;47.10;;;;;;5014549;28;20409;-49
2023/09/07 02:39:26;;;;;;;1.10;0.50;;;20.30;47.10;;;;;;5014739;28;20421;-49
2023/09/07 02:41:52;;;;;;;1.40;1.10;;;20.30;47.20;;;;;;5014680;28;20177;-48
2023/09/07 02:44:18;;;;;;;1.33;0.63;;;20.30;47.10;;;;;;5014601;28;20910;-51
2023/09/07 02:46:43;;;;;;;1.20;0.80;;;20.30;47.20;;;;;;5014586;28;20410;-48
2023/09/07 02:49:09;;;;;;;1.53;0.73;;;20.30;47.10;;;;;;5014388;28;20449;-49
2023/09/07 02:51:35;;;;;;;1.70;0.87;;;20.20;46.90;;;;;;5014547;28;20181;-51
2023/09/07 02:54:03;;;;;;;1.83;1.07;;;20.20;47.00;;;;;;5014556;28;20453;-51
2023/09/07 02:56:28;;;;;;;1.10;0.60;;;20.20;47.40;;;;;;5014513;28;20209;-51
2023/09/07 02:58:54;;;;;;;1.10;0.70;;;20.20;47.30;;;;;;5014346;28;20813;-51
2023/09/07 03:01:20;;;;;;;1.40;0.60;;;20.20;47.10;;;;;;5014406;28;20294;-48
2023/09/07 03:03:46;;;;;;;4.57;1.07;;;20.20;47.20;;;;;;5014237;28;20171;-48
2023/09/07 03:06:13;;;;;;;1.10;0.60;;;20.20;47.00;;;;;;5014292;28;20434;-51
2023/09/07 03:08:43;;;;;;;1.20;0.70;;;20.20;46.90;;;;;;5014204;28;20430;-48
2023/09/07 03:11:09;;;;;;;1.13;0.60;;;20.20;46.70;;;;;;5014475;28;20500;-50
2023/09/07 03:13:35;;;;;;;1.30;0.60;;;20.20;46.70;;;;;;5014045;28;20533;-48
2023/09/07 03:16:02;;;;;;;1.43;0.83;;;20.10;46.80;;;;;;5013845;28;21069;-50
2023/09/07 03:18:28;;;;;;;1.03;0.53;;;20.10;46.80;;;;;;5013969;28;20636;-50
2023/09/07 03:20:55;;;;;;;1.30;0.83;;;20.00;47.20;;;;;;5013928;28;20535;-49
2023/09/07 03:23:23;;;;;;;1.45;1.08;;;20.00;47.00;;;;;;5014206;28;20412;-50
2023/09/07 03:25:48;;;;;;;2.87;1.50;;;20.00;46.90;;;;;;5013910;28;20210;-48
2023/09/07 03:28:14;;;;;;;1.30;0.60;;;20.00;46.90;;;;;;5013875;28;20538;-53
2023/09/07 03:30:40;;;;;;;1.93;1.33;;;20.00;46.90;;;;;;5013884;28;20178;-50
2023/09/07 03:33:06;;;;;;;1.27;0.57;;;19.90;47.10;;;;;;5013896;28;20202;-47
2023/09/07 03:35:32;;;;;;;1.10;0.53;;;19.90;47.30;;;;;;5013489;28;20735;-50
2023/09/07 03:37:58;;;;;;;1.10;0.70;;;19.90;46.90;;;;;;5013800;28;20758;-47
2023/09/07 03:40:24;;;;;;;1.10;0.60;;;19.90;47.00;;;;;;5013773;28;20489;-50
2023/09/07 03:42:50;;;;;;;2.37;0.93;;;19.80;46.80;;;;;;5013608;28;20408;-50
2023/09/07 03:45:16;;;;;;;1.57;0.87;;;19.80;47.00;;;;;;5013616;28;20416;-49
2023/09/07 03:47:42;;;;;;;1.30;0.90;;;19.80;47.00;;;;;;5012612;28;20809;-50
2023/09/07 03:50:09;;;;;;;1.10;0.65;;;19.80;47.20;;;;;;5013215;28;20457;-49
2023/09/07 03:52:34;;;;;;;2.38;1.50;;;19.80;47.20;;;;;;5013595;28;20206;-49
2023/09/07 03:55:01;;;;;;;1.07;0.50;;;19.70;47.30;;;;;;5013116;28;20186;-50
2023/09/07 03:57:27;;;;;;;1.10;0.60;;;19.70;47.30;;;;;;5013571;28;20645;-51
2023/09/07 03:59:55;;;;;;;1.30;0.93;;;19.70;46.90;;;;;;5013198;28;20928;-48
2023/09/07 04:02:21;;;;;;;1.70;0.93;;;19.70;47.00;;;;;;5013124;28;20178;-48
2023/09/07 04:04:51;;;;;;;2.70;0.77;;;19.70;47.00;;;;;;5012843;28;20496;-50
2023/09/07 04:07:17;;;;;;;1.52;0.85;;;19.60;46.90;;;;;;5013244;28;20397;-49
2023/09/07 04:09:44;;;;;;;1.20;0.67;;;19.60;47.10;;;;;;5013148;28;20194;-50
2023/09/07 04:12:10;;;;;;;1.10;0.57;;;19.60;47.00;;;;;;5012954;28;20985;-49
2023/09/07 04:14:36;;;;;;;1.38;0.98;;;19.60;47.10;;;;;;5013077;28;20409;-48
2023/09/07 04:17:02;;;;;;;1.40;0.80;;;19.60;47.10;;;;;;5013121;28;20525;-51
2023/09/07 04:19:28;;;;;;;1.77;0.50;;;19.60;47.30;;;;;;5012830;28;20213;-47
2023/09/07 04:21:54;;;;;;;1.30;0.93;;;19.50;47.60;;;;;;5013029;28;20402;-47
2023/09/07 04:24:20;;;;;;;1.33;1.00;;;19.50;47.30;;;;;;5012634;28;20424;-50
2023/09/07 04:26:47;;;;;;;1.10;0.40;;;19.50;47.80;;;;;;5012889;28;20166;-51
2023/09/07 04:29:13;;;;;;;1.00;0.50;;;19.50;47.40;;;;;;5012991;28;20201;-48
2023/09/07 04:31:39;;;;;;;0.90;0.30;;;19.50;47.20;;;;;;5012707;28;20554;-50
2023/09/07 04:34:04;;;;;;;2.33;1.50;;;19.50;47.00;;;;;;5012712;28;20708;-51
2023/09/07 04:36:30;;;;;;;1.10;0.60;;;19.50;46.90;;;;;;5012648;28;20167;-48
2023/09/07 04:38:56;;;;;;;1.20;0.50;;;19.50;47.30;;;;;;5012681;28;20190;-51
2023/09/07 04:41:22;;;;;;;1.10;0.70;;;19.50;46.90;;;;;;5012881;28;20269;-52
2023/09/07 04:43:47;;;;;;;1.93;0.77;;;19.50;47.00;;;;;;5012800;28;20178;-48
2023/09/07 04:46:14;;;;;;;1.80;1.40;;;19.50;47.10;;;;;;5012236;28;20975;-49
2023/09/07 04:48:41;;;;;;;1.10;0.57;;;19.40;47.10;;;;;;5012283;28;20625;-52
2023/09/07 04:51:08;;;;;;;1.20;0.95;;;19.40;47.10;;;;;;5012441;28;20515;-48
2023/09/07 04:53:36;;;;;;;1.25;0.60;;;19.30;47.50;;;;;;5049845;23;20218;-53
2023/09/07 04:56:03;;;;;;;1.30;1.02;;;19.30;47.70;;;;;;5001422;28;20258;-51
2023/09/07 04:58:29;;;;;;;1.55;1.00;;;19.30;47.70;;;;;;4992691;28;20175;-52
2023/09/07 05:01:00;;;;;;;1.03;0.47;;;19.30;47.80;;;;;;4992686;28;20259;-54
2023/09/07 05:03:26;;;;;;;1.73;0.60;;;19.40;47.70;;;;;;4992681;28;20444;-52
2023/09/07 05:05:53;;;;;;;1.37;0.60;;;19.40;47.90;;;;;;4992549;28;20270;-51
2023/09/07 05:08:20;;;;;;;1.27;1.08;;;19.40;47.80;;;;;;4992781;28;20179;-53
2023/09/07 05:10:45;;;;;;;1.10;0.70;;;19.50;48.00;;;;;;4992727;28;20187;-51
2023/09/07 05:13:11;;;;;;;2.80;1.30;;;19.60;47.60;;;;;;4992848;28;20757;-53
2023/09/07 05:15:37;;;;;;;1.03;0.43;;;19.60;47.60;;;;;;4992309;28;20180;-51
2023/09/07 05:18:03;;;;;;;1.10;0.50;;;19.70;47.80;;;;;;4992647;28;20171;-50
2023/09/07 05:20:31;;;;;;;1.00;0.53;;;19.80;47.70;;;;;;4992631;28;20172;-52
2023/09/07 05:22:59;;;;;;;1.40;0.95;;;19.80;47.90;;;;;;4992568;28;20426;-53
2023/09/07 05:25:25;;;;;;;2.80;1.13;;;19.90;47.80;;;;;;4992320;28;20639;-51
2023/09/07 05:27:51;;;;;;;2.00;1.30;;;20.00;47.80;;;;;;4992444;28;20262;-53
2023/09/07 05:30:16;;;;;;;2.23;0.80;;;20.00;47.70;;;;;;4991152;28;20948;-50
2023/09/07 05:32:42;;;;;;;1.00;0.50;;;20.10;47.80;;;;;;4992502;28;20615;-51
2023/09/07 05:35:10;;;;;;;1.67;1.03;;;20.20;47.50;;;;;;4992311;28;20284;-53
2023/09/07 05:37:36;;;;;;;2.17;0.82;;;20.30;47.90;;;;;;4992587;28;20163;-54
2023/09/07 05:40:03;;;;;;;1.60;0.60;;;20.30;47.80;;;;;;4992493;28;20226;-50
2023/09/07 05:42:29;;;;;;;1.40;0.70;;;20.40;47.70;;;;;;4992309;28;20527;-53
2023/09/07 05:44:54;;;;;;;1.00;0.47;;;20.50;47.80;;;;;;4992180;28;20178;-51
2023/09/07 05:47:20;;;;;;;1.30;0.50;;;20.60;47.80;;;;;;4992513;28;20178;-51
2023/09/07 05:49:46;;;;;;;1.10;0.50;;;20.70;47.70;;;;;;4992471;28;20202;-53
2023/09/07 05:52:12;;;;;;;1.10;0.53;;;20.80;47.50;;;;;;4992288;28;20251;-52
2023/09/07 05:54:37;;;;;;;1.50;1.00;;;20.90;47.70;;;;;;4992019;28;20737;-50
2023/09/07 05:57:03;;;;;;;4.63;1.30;;;20.90;47.60;;;;;;4992276;28;20904;-53
2023/09/07 05:59:29;;;;;;;1.30;0.60;;;21.00;47.70;;;;;;4992146;28;20191;-54
2023/09/07 06:01:55;;;;;;;1.00;0.33;;;21.10;47.60;;;;;;4992278;28;20425;-51
2023/09/07 06:04:21;;;;;;;1.10;0.50;;;21.20;47.40;;;;;;4992168;28;20199;-53
2023/09/07 06:06:47;;;;;;;1.10;0.40;;;21.30;47.40;;;;;;4992201;28;20207;-51
2023/09/07 06:09:13;;;;;;;1.60;0.93;;;21.40;47.20;;;;;;4992198;28;20179;-54
2023/09/07 06:11:39;;;;;;;1.97;1.23;;;21.50;47.10;;;;;;4995016;28;20255;-51
2023/09/07 06:14:04;;;;;;;1.70;0.83;;;21.60;47.00;;;;;;4995275;28;20218;-51
2023/09/07 06:16:30;;;;;;;2.60;0.90;;;21.70;47.20;;;;;;4994311;28;20653;-54
2023/09/07 06:18:56;;;;;;;1.53;0.77;;;21.80;46.80;;;;;;4995721;28;20183;-53
2023/09/07 06:21:22;;;;;;;1.40;0.60;;;21.80;46.60;;;;;;4995549;28;20179;-50
2023/09/07 06:23:47;;;;;;;1.23;0.80;;;21.90;46.70;;;;;;4995412;28;20227;-51
2023/09/07 06:26:14;;;;;;;1.43;0.60;;;21.90;46.30;;;;;;4995276;28;20210;-53
2023/09/07 06:28:39;;;;;;;1.00;0.53;;;22.00;46.40;;;;;;4995342;28;20186;-51
2023/09/07 06:31:05;;;;;;;1.17;0.60;;;22.10;46.50;;;;;;4995427;28;20411;-51
2023/09/07 06:33:31;;;;;;;1.00;0.40;;;22.20;46.30;;;;;;4995211;28;20227;-53
2023/09/07 06:36:01;;;;;;;2.43;0.47;;;22.20;46.30;;;;;;4995098;28;20250;-53
2023/09/07 06:38:26;;;;;;;1.20;0.70;;;22.30;46.10;;;;;;4995273;28;20222;-51
2023/09/07 06:40:52;;;;;;;1.10;0.50;;;22.40;46.10;;;;;;4995106;28;20431;-53
2023/09/07 06:43:18;;;;;;;1.10;0.50;;;22.50;46.20;;;;;;4995076;28;20202;-51
2023/09/07 06:45:44;;;;;;;1.30;0.87;;;22.50;46.10;;;;;;4994969;28;20179;-52
2023/09/07 06:48:10;;;;;;;1.40;0.90;;;22.60;45.80;;;;;;4995124;28;20179;-51
2023/09/07 06:50:36;;;;;;;1.10;0.60;;;22.80;45.70;;;;;;4995051;28;20498;-51
2023/09/07 06:53:02;;;;;;;1.67;0.60;;;22.90;45.80;;;;;;4994826;28;20238;-51
2023/09/07 06:55:29;;;;;;;0.90;0.30;;;23.00;45.70;;;;;;4994587;28;20410;-53
2023/09/07 06:57:55;;;;;;;1.10;0.50;;;23.10;45.40;;;;;;4994814;28;20417;-51
2023/09/07 07:00:21;;;;;;;1.10;0.60;;;23.20;45.20;;;;;;4994928;28;20416;-51
2023/09/07 07:02:47;;;;;;;2.43;0.90;;;23.30;45.90;;;;;;4994741;28;20434;-53
2023/09/07 07:05:13;;;;;;;1.83;0.87;;;23.40;45.00;;;;;;4994536;28;20445;-51
2023/09/07 07:07:39;;;;;;;1.30;0.80;;;23.50;45.10;;;;;;4994828;28;20539;-50
2023/09/07 07:10:06;;;;;;;1.23;0.63;;;23.60;45.00;;;;;;4994869;28;20186;-52
2023/09/07 07:12:34;;;;;;;1.30;0.60;;;23.70;44.80;;;;;;4994407;28;20430;-52
2023/09/07 07:15:04;;;;;;;1.20;0.67;;;23.80;45.00;;;;;;4994426;28;20411;-52
2023/09/07 07:17:30;;;;;;;1.20;0.80;;;23.90;44.90;;;;;;4994536;28;20410;-54
2023/09/07 07:19:55;;;;;;;1.43;0.90;;;24.10;44.40;;;;;;4994448;28;20437;-51
2023/09/07 07:22:21;;;;;;;1.10;0.40;;;24.10;43.70;;;;;;4994407;28;20180;-51
2023/09/07 07:24:47;;;;;;;1.10;0.60;;;24.20;43.80;;;;;;4994098;28;20183;-52
2023/09/07 07:27:12;;;;;;;2.10;0.70;;;24.40;43.90;;;;;;4994394;28;20172;-51
2023/09/07 07:29:38;;;;;;;1.03;0.50;;;24.50;43.70;;;;;;4994323;28;20202;-51
2023/09/07 07:32:04;;;;;;;2.90;1.00;;;24.70;43.10;;;;;;4994232;28;20187;-52
2023/09/07 07:34:32;;;;;;;2.20;0.80;;;24.80;42.60;;;;;;4994082;28;20468;-51
2023/09/07 07:36:59;;;;;;;1.10;0.50;;;24.90;43.30;;;;;;4995189;28;20642;-51
2023/09/07 07:42:53;;;;;;;1.13;0.77;;;25.20;42.40;;;;;;5005910;28;20306;-55
2023/09/07 07:45:20;;;;;;;1.10;0.60;;;25.10;42.00;;;;;;5009200;28;20843;-56
2023/09/07 07:47:46;;;;;;;1.10;0.50;;;25.20;42.70;;;;;;5022359;28;20441;-58
2023/09/07 07:50:12;;;;;;;1.20;0.50;;;25.40;42.30;;;;;;5012844;28;20436;-52
2023/09/07 07:52:38;;;;;;;1.00;0.40;;;25.50;41.60;;;;;;5013188;28;20453;-57
2023/09/07 07:55:04;;;;;;;1.20;0.53;;;25.70;41.60;;;;;;5013227;28;20463;-54
2023/09/07 07:57:31;;;;;;;1.10;0.57;;;25.90;40.50;;;;;;5013043;28;20903;-55
2023/09/07 07:59:57;;;;;;;1.30;0.90;;;26.00;40.90;;;;;;5012673;28;20525;-57
2023/09/07 08:02:22;;;;;;;1.30;0.70;;;26.10;41.70;;;;;;5012895;28;20501;-55
2023/09/07 08:04:48;;;;;;;1.70;0.70;;;26.20;39.70;;;;;;5013121;28;20445;-57
2023/09/07 08:07:14;;;;;;;1.70;0.73;;;26.20;39.80;;;;;;5012905;28;20214;-54
2023/09/07 08:09:40;;;;;;;1.80;1.40;;;26.40;40.60;;;;;;5012579;28;20860;-53
2023/09/07 08:12:06;;;;;;;1.50;0.80;;;26.50;40.20;;;;;;5012850;28;20170;-57
2023/09/07 08:14:32;;;;;;;1.20;0.53;;;26.60;40.10;;;;;;5012903;28;20796;-55
2023/09/07 08:16:58;;;;;;;1.57;1.07;;;26.80;40.60;;;;;;5012798;28;20472;-57
2023/09/07 08:19:24;;;;;;;1.50;0.83;;;26.90;40.20;;;;;;5012370;28;20433;-57
2023/09/07 08:21:51;;;;;;;1.20;0.70;;;27.00;40.50;;;;;;5012654;28;20406;-53
2023/09/07 08:24:18;;;;;;;1.10;0.47;;;27.20;39.60;;;;;;5012561;28;20456;-56
2023/09/07 08:26:43;;;;;;;1.33;0.53;;;27.30;38.60;;;;;;5012602;28;20528;-54
2023/09/07 08:29:10;;;;;;;1.67;1.23;;;27.40;39.50;;;;;;5012246;28;20448;-54
2023/09/07 08:31:38;;;;;;;1.40;0.60;;;27.50;38.70;;;;;;5012755;28;20190;-57
2023/09/07 08:34:06;;;;;;;1.27;0.70;;;27.50;37.50;;;;;;5012348;28;20461;-55
2023/09/07 08:36:33;;;;;;;1.13;0.60;;;27.50;38.00;;;;;;5012432;28;20984;-58
2023/09/07 08:39:08;;;;;;;1.20;0.70;;;27.70;37.50;;;;;;5012111;28;20445;-55
2023/09/07 08:41:44;;;;;;;1.23;0.70;;;27.70;37.80;;;;;;5012687;28;20405;-56
2023/09/07 08:44:10;;;;;;;1.30;0.77;;;27.90;37.70;;;;;;5012409;28;20463;-57
2023/09/07 08:46:37;;;;;;;1.43;0.97;;;28.00;35.70;;;;;;5012370;28;20413;-57
2023/09/07 08:49:04;;;;;;;1.20;0.80;;;28.00;35.50;;;;;;5011952;28;20524;-54
2023/09/07 08:51:31;;;;;;;1.40;0.60;;;28.10;36.30;;;;;;5012211;28;20938;-57
2023/09/07 08:53:58;;;;;;;2.40;1.47;;;28.10;36.60;;;;;;5011993;28;20464;-55
2023/09/07 08:56:24;;;;;;;2.10;0.80;;;28.20;35.20;;;;;;5012401;28;20436;-55
2023/09/07 08:58:50;;;;;;;1.20;0.83;;;28.30;35.50;;;;;;5012038;28;20430;-57
2023/09/07 09:01:21;;;;;;;1.23;0.63;;;28.40;35.70;;;;;;5012063;28;20475;-55
2023/09/07 09:03:48;;;;;;;1.50;0.80;;;28.40;34.90;;;;;;5012163;28;20506;-56
2023/09/07 09:06:18;;;;;;;1.30;0.70;;;28.50;35.50;;;;;;5011895;28;20424;-57
2023/09/07 09:08:52;;;;;;;1.27;0.83;;;28.60;34.30;;;;;;5011683;28;20429;-55
2023/09/07 09:11:18;;;;;;;1.20;0.50;;;28.70;35.70;;;;;;5012009;28;20417;-55
2023/09/07 09:13:45;;;;;;;1.20;0.67;;;28.70;34.70;;;;;;5011952;28;21036;-57
2023/09/07 09:16:12;;;;;;;1.10;0.60;;;28.90;34.70;;;;;;5010843;28;20839;-53
2023/09/07 09:18:47;;;;;;;2.00;1.50;;;28.90;35.00;;;;;;5011608;28;20433;-55
2023/09/07 09:21:14;;;;;;;1.10;0.50;;;29.00;34.50;;;;;;5011902;28;20416;-52
2023/09/07 09:23:41;;;;;;;2.23;0.80;;;29.10;33.60;;;;;;5011905;28;20441;-56
2023/09/07 09:26:07;;;;;;;1.67;0.83;;;29.10;33.80;;;;;;5011891;28;20421;-54
2023/09/07 09:28:34;;;;;;;1.10;0.63;;;29.20;33.60;;;;;;5011496;28;20426;-51
2023/09/07 09:31:00;;;;;;;1.50;0.80;;;29.20;34.30;;;;;;5011877;28;20655;-52
2023/09/07 09:33:27;;;;;;;1.20;0.70;;;29.30;34.30;;;;;;5011782;28;20541;-54
2023/09/07 09:35:54;;;;;;;1.30;0.70;;;29.40;33.50;;;;;;5011731;28;20406;-51
2023/09/07 09:38:20;;;;;;;1.60;0.90;;;29.40;34.50;;;;;;5011597;28;20406;-53
2023/09/07 09:40:46;;;;;;;1.10;0.40;;;29.50;33.80;;;;;;5011576;28;20411;-54
2023/09/07 09:43:13;;;;;;;1.50;0.77;;;29.60;32.80;;;;;;5011700;28;20418;-55
2023/09/07 09:45:39;;;;;;;1.43;0.70;;;29.70;33.60;;;;;;5013380;28;20686;-54
2023/09/07 09:48:06;;;;;;;1.30;0.90;;;29.70;32.80;;;;;;5015500;28;20409;-52
2023/09/07 09:50:37;;;;;;;1.00;0.37;;;29.70;33.30;;;;;;5015286;28;20437;-56
2023/09/07 09:53:07;;;;;;;1.50;0.70;;;29.80;32.10;;;;;;5015541;28;20449;-52
2023/09/07 09:55:38;;;;;;;1.20;0.60;;;29.80;32.10;;;;;;5015491;28;20409;-55
2023/09/07 09:58:04;;;;;;;1.20;0.60;;;29.80;33.10;;;;;;5015539;28;20406;-52
2023/09/07 10:00:31;;;;;;;1.20;0.50;;;29.90;32.00;;;;;;5014851;28;20456;-56
2023/09/07 10:03:05;;;;;;;1.77;0.90;;;30.00;33.30;;;;;;5015233;28;20182;-55
2023/09/07 10:05:32;;;;;;;1.20;0.50;;;30.00;32.60;;;;;;5015328;28;20475;-55
2023/09/07 10:08:07;;;;;;;1.93;0.97;;;30.10;33.20;;;;;;5015288;28;20459;-58
2023/09/07 10:10:36;;;;;;;1.00;0.40;;;30.10;33.20;;;;;;5014774;28;20432;-55
2023/09/07 10:13:02;;;;;;;1.23;0.50;;;30.20;31.70;;;;;;5014937;28;20448;-55
2023/09/07 10:15:29;;;;;;;1.20;0.60;;;30.20;32.90;;;;;;5015152;28;20418;-57
2023/09/07 10:18:12;;;;;;;1.10;0.50;;;30.30;32.50;;;;;;5014947;28;20437;-57
2023/09/07 10:20:51;;;;;;;1.30;0.60;;;30.40;32.20;;;;;;5014568;28;20799;-57
2023/09/07 10:23:17;;;;;;;2.70;1.00;;;30.40;31.80;;;;;;5014799;28;20468;-54
2023/09/07 10:25:48;;;;;;;1.57;1.00;;;30.50;31.40;;;;;;5014796;28;20771;-55
2023/09/07 10:28:19;;;;;;;1.10;0.50;;;30.60;30.40;;;;;;5014973;28;20424;-57
2023/09/07 10:30:57;;;;;;;1.37;0.60;;;30.60;30.10;;;;;;5014594;28;20406;-58
2023/09/07 10:33:22;;;;;;;1.40;0.77;;;30.60;30.10;;;;;;5014641;28;20449;-54
2023/09/07 10:35:48;;;;;;;6.20;1.07;;;30.70;30.80;;;;;;5014506;28;20934;-56
2023/09/07 10:38:14;;;;;;;1.97;0.67;;;30.80;31.30;;;;;;5014528;28;20259;-57
2023/09/07 10:40:44;;;;;;;1.10;0.40;;;30.90;30.30;;;;;;5014241;28;20195;-55
2023/09/07 10:43:09;;;;;;;1.20;0.77;;;30.80;30.70;;;;;;5014288;28;20421;-54
2023/09/07 10:45:35;;;;;;;1.70;0.70;;;30.90;29.80;;;;;;5014514;28;20418;-55
2023/09/07 10:48:03;;;;;;;1.40;0.40;;;31.00;28.60;;;;;;5014397;28;20227;-56
2023/09/07 10:50:29;;;;;;;1.27;0.60;;;31.00;27.70;;;;;;5013886;28;20195;-57
2023/09/07 10:52:55;;;;;;;1.00;0.37;;;31.10;29.70;;;;;;5014245;28;20495;-57
2023/09/07 10:55:21;;;;;;;1.40;0.50;;;31.20;28.10;;;;;;5014127;28;20962;-57
2023/09/07 10:57:47;;;;;;;1.00;0.40;;;31.30;28.60;;;;;;5013920;28;20405;-57
2023/09/07 11:00:15;;;;;;;1.50;1.03;;;31.30;29.30;;;;;;5012668;28;20198;-57
2023/09/07 11:02:42;;;;;;;1.00;0.40;;;31.40;29.50;;;;;;5014242;28;20421;-56
2023/09/07 11:05:09;;;;;;;1.47;0.70;;;31.40;29.60;;;;;;5013995;28;20421;-57
2023/09/07 11:07:36;;;;;;;1.10;0.53;;;31.40;28.90;;;;;;5014034;28;20412;-55
2023/09/07 11:10:04;;;;;;;1.00;0.30;;;31.50;27.80;;;;;;5013786;28;20954;-57
2023/09/07 11:12:37;;;;;;;1.30;0.50;;;31.50;26.20;;;;;;5013789;28;20416;-57
2023/09/07 11:15:04;;;;;;;1.43;0.50;;;31.40;26.50;;;;;;5013867;28;20414;-53
2023/09/07 11:17:30;;;;;;;1.30;0.50;;;31.40;25.60;;;;;;5013876;28;20415;-57
2023/09/07 11:19:55;;;;;;;1.10;0.50;;;31.40;28.50;;;;;;5013503;28;20832;-57
2023/09/07 11:22:22;;;;;;;1.40;0.60;;;31.50;27.90;;;;;;5013933;28;20646;-58
2023/09/07 11:24:48;;;;;;;2.37;0.63;;;31.60;28.40;;;;;;5013728;28;20237;-53
2023/09/07 11:27:17;;;;;;;1.20;0.67;;;31.70;26.40;;;;;;5013664;28;20450;-55
2023/09/07 11:29:51;;;;;;;1.20;0.50;;;31.80;26.70;;;;;;5013350;28;20224;-52
2023/09/07 11:32:21;;;;;;;1.30;0.50;;;31.80;27.30;;;;;;5013530;28;20420;-55
2023/09/07 11:34:56;;;;;;;1.20;0.70;;;31.80;26.20;;;;;;5013490;28;20475;-54
2023/09/07 11:37:25;;;;;;;1.30;0.50;;;31.80;27.00;;;;;;5013625;28;20413;-56
2023/09/07 11:39:51;;;;;;;1.40;0.70;;;31.70;27.10;;;;;;5013080;28;20841;-52
2023/09/07 11:42:17;;;;;;;1.20;0.60;;;31.80;26.80;;;;;;5013371;28;20419;-56
2023/09/07 11:44:43;;;;;;;1.30;0.60;;;31.90;26.80;;;;;;5013189;28;20344;-57
2023/09/07 11:47:08;;;;;;;1.00;0.40;;;31.90;27.30;;;;;;5013338;28;20185;-56
2023/09/07 11:49:34;;;;;;;2.07;1.13;;;32.00;26.90;;;;;;5013086;28;20203;-57
2023/09/07 11:52:00;;;;;;;1.10;0.53;;;32.10;26.30;;;;;;5013289;28;20261;-56
2023/09/07 11:54:27;;;;;;;1.37;0.50;;;32.10;25.90;;;;;;5013086;28;20203;-56
2023/09/07 11:56:53;;;;;;;1.20;0.60;;;32.00;26.70;;;;;;5013121;28;20221;-56
2023/09/07 11:59:18;;;;;;;1.53;0.80;;;32.10;26.50;;;;;;5012681;28;20429;-57
2023/09/07 12:01:44;;;;;;;1.47;1.00;;;32.10;27.50;;;;;;5013076;28;20433;-57
2023/09/07 12:04:10;;;;;;;1.00;0.40;;;32.10;27.30;;;;;;5013035;28;20413;-56
2023/09/07 12:06:36;;;;;;;1.00;0.37;;;32.10;27.40;;;;;;5004995;28;20571;-56
2023/09/07 12:09:06;;;;;;;1.10;0.60;;;32.20;28.60;;;;;;5011979;28;20202;-56
2023/09/07 12:11:33;;;;;;;1.00;0.30;;;32.30;27.80;;;;;;5012875;28;20432;-57
2023/09/07 12:13:59;;;;;;;1.20;0.70;;;32.30;26.00;;;;;;5012728;28;20456;-57
2023/09/07 12:16:28;;;;;;;2.50;1.07;;;32.40;27.10;;;;;;5012728;28;20775;-57
2023/09/07 12:18:54;;;;;;;1.20;0.50;;;32.50;27.90;;;;;;5012432;28;20429;-56
2023/09/07 12:21:21;;;;;;;4.40;0.90;;;32.60;27.40;;;;;;5012962;28;20417;-57
2023/09/07 12:23:46;;;;;;;1.20;0.57;;;32.70;27.70;;;;;;5012742;28;20836;-56
2023/09/07 12:26:14;;;;;;;1.77;1.00;;;32.80;27.70;;;;;;5012526;28;20516;-57
2023/09/07 12:28:40;;;;;;;1.63;0.97;;;32.80;26.50;;;;;;5012177;28;20179;-55
2023/09/07 12:31:06;;;;;;;1.60;0.97;;;32.80;26.70;;;;;;5012715;28;20429;-55
2023/09/07 12:33:32;;;;;;;1.13;0.53;;;32.90;26.80;;;;;;5012348;28;20500;-57
2023/09/07 12:35:58;;;;;;;1.20;0.63;;;32.90;27.00;;;;;;5012532;28;20513;-57
2023/09/07 12:38:28;;;;;;;1.10;0.50;;;32.90;26.90;;;;;;5012184;28;20480;-55
2023/09/07 12:40:54;;;;;;;1.40;0.50;;;32.90;26.60;;;;;;5012311;28;20827;-54
2023/09/07 12:43:20;;;;;;;1.10;0.40;;;32.80;26.70;;;;;;5012141;28;21009;-55
2023/09/07 12:45:46;;;;;;;1.50;0.63;;;32.80;27.10;;;;;;5012321;28;20560;-56
2023/09/07 12:48:12;;;;;;;1.40;0.70;;;32.80;26.20;;;;;;5012170;28;20170;-56
2023/09/07 12:50:39;;;;;;;1.00;0.30;;;32.90;26.40;;;;;;5011999;28;20807;-57